createdAt,value
2023-03-06T00:02:01.553Z,96779.59
2023-03-06T00:04:30.955Z,96779.56
2023-03-06T00:06:57.757Z,96780.63
2023-03-06T00:09:24.453Z,96782.38
2023-03-06T00:11:51.024Z,96783.25
2023-03-06T00:14:17.618Z,96776.97
2023-03-06T00:16:44.237Z,96777.84
2023-03-06T00:19:12.805Z,96772.81
2023-03-06T00:21:45.390Z,96771.13
2023-03-06T00:24:16.101Z,96769.50
2023-03-06T00:26:43.397Z,96771.34
2023-03-06T00:29:10.075Z,96768.75
2023-03-06T00:31:37.105Z,96765.31
2023-03-06T00:34:06.656Z,96769.50
2023-03-06T00:36:36.006Z,96773.66
2023-03-06T00:39:02.639Z,96767.03
2023-03-06T00:41:29.314Z,96765.22
2023-03-06T00:44:01.024Z,96768.00
2023-03-06T00:46:27.656Z,96767.06
2023-03-06T00:48:54.248Z,96760.94
2023-03-06T00:51:23.331Z,96760.22
2023-03-06T00:53:52.516Z,96762.84
2023-03-06T00:56:20.066Z,96768.91
2023-03-06T00:58:46.843Z,96765.38
2023-03-06T01:01:13.840Z,96755.84
2023-03-06T01:03:42.432Z,96762.91
2023-03-06T01:06:09.205Z,96756.84
2023-03-06T01:08:35.938Z,96757.41
2023-03-06T01:11:02.638Z,96754.16
2023-03-06T01:13:29.389Z,96757.50
2023-03-06T01:16:07.432Z,96768.00
2023-03-06T01:18:34.335Z,96751.66
2023-03-06T01:21:00.997Z,96763.91
2023-03-06T01:23:27.704Z,96762.28
2023-03-06T01:25:56.987Z,96771.88
2023-03-06T01:28:24.055Z,96768.34
2023-03-06T01:30:53.461Z,96770.88
2023-03-06T01:33:20.216Z,96759.69
2023-03-06T01:35:46.967Z,96757.09
2023-03-06T01:38:14.378Z,96750.19
2023-03-06T01:40:41.070Z,96756.25
2023-03-06T01:43:26.670Z,96749.13
2023-03-06T01:46:12.065Z,96740.59
2023-03-06T01:48:39.702Z,96757.94
2023-03-06T01:51:06.505Z,96744.13
2023-03-06T01:53:33.424Z,96743.25
2023-03-06T01:56:00.145Z,96738.00
2023-03-06T01:58:26.945Z,96737.16
2023-03-06T02:00:53.640Z,96736.41
2023-03-06T02:03:26.762Z,96736.25
2023-03-06T02:05:57.396Z,96728.59
2023-03-06T02:08:24.992Z,96733.84
2023-03-06T02:11:00.922Z,96736.38
2023-03-06T02:13:27.650Z,96731.28
2023-03-06T02:15:54.420Z,96736.63
2023-03-06T02:18:21.123Z,96742.75
2023-03-06T02:20:54.220Z,96738.41
2023-03-06T02:23:32.221Z,96737.47
2023-03-06T02:26:00.998Z,96734.06
2023-03-06T02:28:27.881Z,96737.47
2023-03-06T02:30:56.468Z,96740.06
2023-03-06T02:33:27.366Z,96731.31
2023-03-06T02:36:02.911Z,96738.16
2023-03-06T02:38:42.262Z,96746.03
2023-03-06T02:41:10.726Z,96742.66
2023-03-06T02:43:43.490Z,96745.31
2023-03-06T02:46:12.735Z,96742.66
2023-03-06T02:48:39.515Z,96734.06
2023-03-06T02:51:06.779Z,96736.69
2023-03-06T02:53:36.451Z,96740.00
2023-03-06T02:56:03.153Z,96735.59
2023-03-06T02:58:29.880Z,96731.28
2023-03-06T03:00:56.501Z,96734.84
2023-03-06T03:03:23.292Z,96729.72
2023-03-06T03:05:50.113Z,96723.50
2023-03-06T03:08:16.883Z,96726.94
2023-03-06T03:10:43.670Z,96726.13
2023-03-06T03:13:12.649Z,96725.25
2023-03-06T03:15:39.354Z,96723.56
2023-03-06T03:18:06.020Z,96724.19
2023-03-06T03:20:33.060Z,96719.19
2023-03-06T03:23:02.932Z,96721.06
2023-03-06T03:25:32.363Z,96724.50
2023-03-06T03:28:04.553Z,96723.59
2023-03-06T03:30:33.827Z,96728.00
2023-03-06T03:33:03.587Z,96723.38
2023-03-06T03:35:33.105Z,96723.50
2023-03-06T03:37:59.987Z,96732.31
2023-03-06T03:40:28.959Z,96727.31
2023-03-06T03:42:55.528Z,96720.56
2023-03-06T03:45:27.741Z,96732.03
2023-03-06T03:47:57.047Z,96730.56
2023-03-06T03:50:25.468Z,96727.19
2023-03-06T03:52:54.446Z,96728.22
2023-03-06T03:55:21.210Z,96729.22
2023-03-06T03:57:47.907Z,96731.13
2023-03-06T04:00:18.410Z,96732.19
2023-03-06T04:02:45.271Z,96734.09
2023-03-06T04:05:14.916Z,96733.47
2023-03-06T04:07:42.731Z,96739.75
2023-03-06T04:10:10.792Z,96743.38
2023-03-06T04:12:37.833Z,96737.56
2023-03-06T04:15:10.351Z,96736.63
2023-03-06T04:17:42.172Z,96747.25
2023-03-06T04:20:14.516Z,96742.28
2023-03-06T04:22:44.338Z,96744.19
2023-03-06T04:25:15.524Z,96741.78
2023-03-06T04:27:42.148Z,96741.00
2023-03-06T04:30:09.397Z,96747.16
2023-03-06T04:32:36.126Z,96744.50
2023-03-06T04:35:05.458Z,96750.75
2023-03-06T04:37:32.192Z,96743.91
2023-03-06T04:39:58.872Z,96750.06
2023-03-06T04:42:25.535Z,96758.81
2023-03-06T04:44:52.284Z,96740.63
2023-03-06T04:47:19.419Z,96750.03
2023-03-06T04:49:46.537Z,96752.63
2023-03-06T04:52:16.064Z,96755.25
2023-03-06T04:54:46.855Z,96756.22
2023-03-06T04:57:14.281Z,96761.41
2023-03-06T04:59:40.899Z,96760.53
2023-03-06T05:02:07.740Z,96765.00
2023-03-06T05:04:38.699Z,96769.38
2023-03-06T05:07:05.456Z,96765.81
2023-03-06T05:09:38.252Z,96768.41
2023-03-06T05:12:08.858Z,96770.16
2023-03-06T05:14:38.184Z,96779.72
2023-03-06T05:17:04.850Z,96780.59
2023-03-06T05:19:31.398Z,96780.50
2023-03-06T05:21:58.091Z,96783.09
2023-03-06T05:24:24.774Z,96786.47
2023-03-06T05:26:51.408Z,96786.38
2023-03-06T05:29:21.326Z,96788.13
2023-03-06T05:31:47.995Z,96793.19
2023-03-06T05:34:16.120Z,96786.88
2023-03-06T05:36:43.327Z,96789.28
2023-03-06T05:39:10.069Z,96792.63
2023-03-06T05:41:36.671Z,96799.50
2023-03-06T05:44:03.333Z,96795.97
2023-03-06T05:46:30.008Z,96792.34
2023-03-06T05:48:57.918Z,96798.50
2023-03-06T05:51:27.840Z,96802.91
2023-03-06T05:53:54.448Z,96807.22
2023-03-06T05:56:23.438Z,96808.06
2023-03-06T05:58:52.563Z,96809.63
2023-03-06T06:01:20.464Z,96806.81
2023-03-06T06:03:47.669Z,96805.97
2023-03-06T06:06:15.726Z,96804.22
2023-03-06T06:08:45.042Z,96805.91
2023-03-06T06:11:13.289Z,96807.38
2023-03-06T06:13:40.666Z,96803.88
2023-03-06T06:16:19.477Z,96814.31
2023-03-06T06:18:46.510Z,96820.03
2023-03-06T06:21:15.942Z,96823.41
2023-03-06T06:23:42.647Z,96813.78
2023-03-06T06:26:11.691Z,96817.84
2023-03-06T06:28:38.345Z,96816.72
2023-03-06T06:31:12.346Z,96807.16
2023-03-06T06:33:41.805Z,96817.38
2023-03-06T06:36:21.693Z,96810.16
2023-03-06T06:38:49.665Z,96818.66
2023-03-06T06:44:08.444Z,96813.81
2023-03-06T06:47:20.913Z,96817.06
2023-03-06T06:49:25.904Z,96815.09
2023-03-06T06:51:52.622Z,96818.38
2023-03-06T06:54:25.173Z,96813.97
2023-03-06T06:56:52.177Z,96821.63
2023-03-06T06:59:22.334Z,96823.13
2023-03-06T07:01:51.636Z,96824.88
2023-03-06T07:04:21.322Z,96823.91
2023-03-06T07:06:50.568Z,96818.59
2023-03-06T07:09:20.188Z,96814.84
2023-03-06T07:11:46.823Z,96821.66
2023-03-06T07:14:13.837Z,96817.28
2023-03-06T07:16:42.237Z,96813.63
2023-03-06T07:19:10.955Z,96813.59
2023-03-06T07:21:37.671Z,96820.34
2023-03-06T07:24:05.982Z,96820.28
2023-03-06T07:26:34.649Z,96814.97
2023-03-06T07:29:03.830Z,96817.28
2023-03-06T07:31:32.320Z,96819.72
2023-03-06T07:33:59.056Z,96816.88
2023-03-06T07:36:28.083Z,96814.97
2023-03-06T07:38:57.598Z,96819.16
2023-03-06T07:41:24.259Z,96817.22
2023-03-06T07:43:53.346Z,96822.09
2023-03-06T07:46:20.036Z,96817.59
2023-03-06T07:48:46.658Z,96817.50
2023-03-06T07:51:19.085Z,96823.28
2023-03-06T07:53:46.668Z,96835.50
2023-03-06T07:56:13.725Z,96823.03
2023-03-06T07:58:43.382Z,96840.25
2023-03-06T08:01:18.089Z,96835.72
2023-03-06T08:03:44.831Z,96837.16
2023-03-06T08:06:32.334Z,96836.78
2023-03-06T08:08:59.807Z,96829.72
2023-03-06T08:11:32.412Z,96837.19
2023-03-06T08:13:59.548Z,96826.03
2023-03-06T08:16:29.647Z,96827.09
2023-03-06T08:18:59.707Z,96825.50
2023-03-06T08:21:29.383Z,96823.75
2023-03-06T08:23:56.314Z,96810.28
2023-03-06T08:26:30.980Z,96814.28
2023-03-06T08:28:59.823Z,96811.47
2023-03-06T08:31:29.532Z,96816.38
2023-03-06T08:33:59.896Z,96815.88
2023-03-06T08:36:35.252Z,96813.38
2023-03-06T08:39:05.183Z,96811.47
2023-03-06T08:41:33.475Z,96810.41
2023-03-06T08:44:00.337Z,96805.72
2023-03-06T08:46:28.870Z,96811.34
2023-03-06T08:48:56.727Z,96810.81
2023-03-06T08:51:28.019Z,96820.47
2023-03-06T08:53:57.329Z,96809.69
2023-03-06T08:56:28.408Z,96821.59
2023-03-06T08:59:00.134Z,96818.22
2023-03-06T09:01:30.982Z,96821.03
2023-03-06T09:03:59.445Z,96815.03
2023-03-06T09:06:29.812Z,96830.06
2023-03-06T09:09:01.566Z,96828.53
2023-03-06T09:11:28.392Z,96815.66
2023-03-06T09:13:55.440Z,96815.66
2023-03-06T09:16:22.113Z,96812.88
2023-03-06T09:18:50.920Z,96821.91
2023-03-06T09:21:17.406Z,96819.22
2023-03-06T09:23:46.271Z,96822.19
2023-03-06T09:26:13.079Z,96827.53
2023-03-06T09:28:42.842Z,96828.75
2023-03-06T09:31:11.644Z,96823.06
2023-03-06T09:33:38.583Z,96821.06
2023-03-06T09:36:16.234Z,96823.09
2023-03-06T09:38:42.813Z,96818.31
2023-03-06T09:41:11.885Z,96821.59
2023-03-06T09:43:40.680Z,96821.78
2023-03-06T09:46:16.043Z,96823.66
2023-03-06T09:48:45.748Z,96813.31
2023-03-06T09:51:23.748Z,96816.63
2023-03-06T09:54:10.183Z,96807.50
2023-03-06T09:56:37.266Z,96811.28
2023-03-06T09:59:25.668Z,96819.66
2023-03-06T10:02:10.768Z,96822.22
2023-03-06T10:04:59.354Z,96815.38
2023-03-06T10:07:35.266Z,96825.97
2023-03-06T10:10:06.514Z,96815.81
2023-03-06T10:12:41.428Z,96818.34
2023-03-06T10:15:10.700Z,96807.94
2023-03-06T10:17:46.918Z,96810.22
2023-03-06T10:20:27.934Z,96813.19
2023-03-06T10:23:01.267Z,96803.31
2023-03-06T10:25:37.515Z,96805.31
2023-03-06T10:28:18.226Z,96806.41
2023-03-06T10:30:50.982Z,96800.13
2023-03-06T10:33:47.209Z,96808.94
2023-03-06T10:36:25.991Z,96807.25
2023-03-06T10:38:56.091Z,96809.13
2023-03-06T10:41:28.301Z,96804.97
2023-03-06T10:44:00.986Z,96807.59
2023-03-06T10:46:31.696Z,96807.16
2023-03-06T10:49:01.783Z,96802.34
2023-03-06T10:51:33.832Z,96796.66
2023-03-06T10:54:06.113Z,96787.91
2023-03-06T10:56:40.871Z,96780.69
2023-03-06T10:59:28.234Z,96786.66
2023-03-06T11:02:08.853Z,96777.81
2023-03-06T11:04:37.848Z,96785.56
2023-03-06T11:07:05.755Z,96782.84
2023-03-06T11:09:33.630Z,96783.69
2023-03-06T11:12:18.820Z,96772.47
2023-03-06T11:14:45.624Z,96780.38
2023-03-06T11:17:32.358Z,96767.91
2023-03-06T11:20:18.914Z,96759.22
2023-03-06T11:22:51.076Z,96766.97
2023-03-06T11:25:31.805Z,96770.94
2023-03-06T11:28:23.916Z,96749.38
2023-03-06T11:30:56.158Z,96750.84
2023-03-06T11:33:28.776Z,96746.88
2023-03-06T11:36:03.427Z,96747.97
2023-03-06T11:38:59.246Z,96749.47
2023-03-06T11:41:25.839Z,96744.91
2023-03-06T11:43:57.711Z,96736.38
2023-03-06T11:46:45.934Z,96742.41
2023-03-06T11:49:32.323Z,96746.19
2023-03-06T11:52:13.628Z,96754.16
2023-03-06T11:54:41.921Z,96738.16
2023-03-06T11:57:18.253Z,96737.75
2023-03-06T11:59:50.914Z,96735.06
2023-03-06T12:02:17.446Z,96734.53
2023-03-06T12:04:46.804Z,96733.50
2023-03-06T12:07:19.788Z,96730.59
2023-03-06T12:09:56.388Z,96731.22
2023-03-06T12:12:49.611Z,96728.47
2023-03-06T12:15:42.577Z,96723.19
2023-03-06T12:18:28.950Z,96715.94
2023-03-06T12:21:15.728Z,96721.03
2023-03-06T12:23:42.292Z,96717.72
2023-03-06T12:26:21.229Z,96716.66
2023-03-06T12:28:52.698Z,96729.47
2023-03-06T12:31:52.421Z,96722.28
2023-03-06T12:34:39.596Z,96723.19
2023-03-06T12:37:23.097Z,96717.00
2023-03-06T12:40:17.689Z,96709.44
2023-03-06T12:42:48.591Z,96707.03
2023-03-06T12:45:28.325Z,96706.44
2023-03-06T12:47:58.768Z,96698.13
2023-03-06T12:50:25.278Z,96693.81
2023-03-06T12:52:56.500Z,96702.78
2023-03-06T12:55:25.909Z,96702.53
2023-03-06T12:57:53.098Z,96694.88
2023-03-06T13:00:38.189Z,96684.72
2023-03-06T13:03:07.682Z,96681.19
2023-03-06T13:05:48.447Z,96685.59
2023-03-06T13:08:21.000Z,96680.34
2023-03-06T13:11:20.228Z,96677.66
2023-03-06T13:13:50.505Z,96669.94
2023-03-06T13:16:42.025Z,96677.50
2023-03-06T13:19:23.228Z,96677.66
2023-03-06T13:21:56.689Z,96679.22
2023-03-06T13:24:24.132Z,96671.59
2023-03-06T13:26:55.202Z,96672.53
2023-03-06T13:29:36.851Z,96671.88
2023-03-06T13:32:03.569Z,96672.19
2023-03-06T13:34:32.991Z,96663.97
2023-03-06T13:37:24.452Z,96662.53
2023-03-06T13:39:57.329Z,96654.31
2023-03-06T13:42:29.643Z,96653.88
2023-03-06T13:44:57.605Z,96654.16
2023-03-06T13:47:39.171Z,96656.66
2023-03-06T13:50:31.032Z,96653.59
2023-03-06T13:53:06.340Z,96654.53
2023-03-06T13:55:35.988Z,96650.56
2023-03-06T13:58:09.261Z,96643.94
2023-03-06T14:00:55.795Z,96650.16
2023-03-06T14:03:41.350Z,96641.59
2023-03-06T14:06:27.949Z,96648.28
2023-03-06T14:08:57.268Z,96644.63
2023-03-06T14:11:35.092Z,96635.03
2023-03-06T14:14:04.112Z,96634.94
2023-03-06T14:16:49.859Z,96640.88
2023-03-06T14:19:17.529Z,96639.97
2023-03-06T14:21:49.258Z,96637.59
2023-03-06T14:24:17.482Z,96640.63
2023-03-06T14:26:56.172Z,96642.22
2023-03-06T14:29:26.487Z,96632.38
2023-03-06T14:31:57.388Z,96636.97
2023-03-06T14:34:29.392Z,96626.75
2023-03-06T14:36:58.354Z,96628.63
2023-03-06T14:39:39.180Z,96634.59
2023-03-06T14:42:19.511Z,96634.47
2023-03-06T14:44:58.207Z,96626.88
2023-03-06T14:47:29.015Z,96636.88
2023-03-06T14:50:16.888Z,96634.34
2023-03-06T14:52:43.491Z,96641.53
2023-03-06T14:55:20.884Z,96635.44
2023-03-06T14:57:52.997Z,96634.06
2023-03-06T15:00:31.419Z,96624.91
2023-03-06T15:03:00.077Z,96628.81
2023-03-06T15:05:31.468Z,96631.44
2023-03-06T15:08:09.177Z,96621.84
2023-03-06T15:10:42.291Z,96620.22
2023-03-06T15:13:22.393Z,96629.19
2023-03-06T15:15:59.926Z,96622.28
2023-03-06T15:18:33.665Z,96624.16
2023-03-06T15:21:19.976Z,96615.88
2023-03-06T15:23:51.026Z,96610.97
2023-03-06T15:26:29.283Z,96613.06
2023-03-06T15:29:08.301Z,96618.28
2023-03-06T15:31:41.065Z,96613.81
2023-03-06T15:34:07.863Z,96602.34
2023-03-06T15:36:35.391Z,96606.06
2023-03-06T15:39:06.056Z,96616.84
2023-03-06T15:41:42.116Z,96615.16
2023-03-06T15:44:11.742Z,96617.78
2023-03-06T15:46:48.466Z,96624.88
2023-03-06T15:49:17.069Z,96626.59
2023-03-06T15:51:45.825Z,96628.03
2023-03-06T15:54:15.188Z,96633.59
2023-03-06T15:56:45.792Z,96628.63
2023-03-06T15:59:26.346Z,96628.34
2023-03-06T16:01:53.592Z,96627.63
2023-03-06T16:04:20.265Z,96629.38
2023-03-06T16:06:48.140Z,96629.56
2023-03-06T16:09:20.270Z,96617.69
2023-03-06T16:11:49.720Z,96619.72
2023-03-06T16:14:21.190Z,96611.34
2023-03-06T16:16:48.347Z,96616.00
2023-03-06T16:19:27.749Z,96616.69
2023-03-06T16:21:55.025Z,96617.72
2023-03-06T16:24:32.201Z,96615.44
2023-03-06T16:27:03.112Z,96622.97
2023-03-06T16:29:30.116Z,96617.41
2023-03-06T16:31:59.623Z,96622.00
2023-03-06T16:34:28.296Z,96625.72
2023-03-06T16:36:58.153Z,96625.03
2023-03-06T16:39:26.685Z,96633.69
2023-03-06T16:41:55.592Z,96629.66
2023-03-06T16:44:22.156Z,96632.75
2023-03-06T16:46:51.610Z,96642.50
2023-03-06T16:49:19.872Z,96639.31
2023-03-06T16:51:47.357Z,96636.19
2023-03-06T16:54:16.566Z,96623.97
2023-03-06T16:56:46.651Z,96629.44
2023-03-06T16:59:16.513Z,96626.09
2023-03-06T17:01:43.444Z,96638.63
2023-03-06T17:04:14.679Z,96633.41
2023-03-06T17:06:44.048Z,96641.13
2023-03-06T17:09:14.437Z,96641.09
2023-03-06T17:11:43.118Z,96652.50
2023-03-06T17:14:09.772Z,96649.13
2023-03-06T17:16:42.485Z,96650.84
2023-03-06T17:19:11.318Z,96646.78
2023-03-06T17:21:46.783Z,96650.47
2023-03-06T17:24:15.555Z,96644.50
2023-03-06T17:26:43.335Z,96643.66
2023-03-06T17:29:12.042Z,96646.28
2023-03-06T17:31:38.733Z,96635.94
2023-03-06T17:34:10.947Z,96646.44
2023-03-06T17:36:42.080Z,96648.19
2023-03-06T17:39:08.593Z,96647.47
2023-03-06T17:41:36.508Z,96649.09
2023-03-06T17:44:03.124Z,96645.69
2023-03-06T17:46:31.844Z,96652.75
2023-03-06T17:49:00.718Z,96644.94
2023-03-06T17:51:27.230Z,96645.06
2023-03-06T17:53:54.013Z,96655.75
2023-03-06T17:56:25.664Z,96646.44
2023-03-06T17:58:54.586Z,96639.09
2023-03-06T18:01:23.029Z,96645.78
2023-03-06T18:03:50.510Z,96641.75
2023-03-06T18:06:25.363Z,96642.56
2023-03-06T18:08:53.050Z,96644.03
2023-03-06T18:11:23.120Z,96648.31
2023-03-06T18:13:53.001Z,96648.63
2023-03-06T18:16:26.268Z,96644.34
2023-03-06T18:18:58.146Z,96647.81
2023-03-06T18:21:25.174Z,96640.25
2023-03-06T18:23:55.119Z,96646.47
2023-03-06T18:26:24.569Z,96642.31
2023-03-06T18:29:00.650Z,96643.09
2023-03-06T18:31:32.336Z,96636.72
2023-03-06T18:34:08.996Z,96644.56
2023-03-06T18:36:36.998Z,96648.88
2023-03-06T18:39:10.173Z,96642.28
2023-03-06T18:41:37.317Z,96645.72
2023-03-06T18:44:04.720Z,96644.25
2023-03-06T18:46:36.771Z,96647.38
2023-03-06T18:49:06.500Z,96644.94
2023-03-06T18:51:33.916Z,96642.13
2023-03-06T18:54:02.084Z,96643.09
2023-03-06T18:56:31.221Z,96645.88
2023-03-06T18:59:02.744Z,96642.53
2023-03-06T19:01:36.479Z,96651.19
2023-03-06T19:04:04.522Z,96649.38
2023-03-06T19:06:34.497Z,96649.72
2023-03-06T19:09:02.437Z,96655.06
2023-03-06T19:11:30.071Z,96654.28
2023-03-06T19:14:00.201Z,96639.81
2023-03-06T19:16:33.210Z,96639.03
2023-03-06T19:18:59.975Z,96636.56
2023-03-06T19:21:29.861Z,96638.31
2023-03-06T19:23:57.417Z,96632.34
2023-03-06T19:26:27.164Z,96626.28
2023-03-06T19:29:00.929Z,96627.28
2023-03-06T19:31:32.520Z,96630.78
2023-03-06T19:34:02.349Z,96626.69
2023-03-06T19:36:33.697Z,96629.38
2023-03-06T19:39:05.386Z,96627.16
2023-03-06T19:41:36.415Z,96629.69
2023-03-06T19:44:05.023Z,96620.41
2023-03-06T19:46:32.241Z,96616.06
2023-03-06T19:49:05.278Z,96618.81
2023-03-06T19:51:37.204Z,96617.91
2023-03-06T19:54:04.972Z,96618.88
2023-03-06T19:56:35.982Z,96623.00
2023-03-06T19:59:02.700Z,96610.75
2023-03-06T20:01:29.398Z,96613.31
2023-03-06T20:03:59.163Z,96616.88
2023-03-06T20:06:29.921Z,96609.94
2023-03-06T20:09:00.348Z,96609.97
2023-03-06T20:11:31.983Z,96605.81
2023-03-06T20:14:06.600Z,96613.69
2023-03-06T20:16:37.329Z,96614.28
2023-03-06T20:19:10.696Z,96604.03
2023-03-06T20:21:40.639Z,96605.81
2023-03-06T20:24:11.289Z,96608.16
2023-03-06T20:26:40.172Z,96605.56
2023-03-06T20:29:06.863Z,96612.84
2023-03-06T20:31:37.757Z,96609.63
2023-03-06T20:34:05.038Z,96609.53
2023-03-06T20:36:37.226Z,96601.66
2023-03-06T20:39:06.738Z,96590.28
2023-03-06T20:41:36.320Z,96587.75
2023-03-06T20:44:04.531Z,96587.94
2023-03-06T20:46:31.714Z,96590.28
2023-03-06T20:49:00.285Z,96593.16
2023-03-06T20:51:31.518Z,96594.88
2023-03-06T20:54:01.032Z,96594.84
2023-03-06T20:56:30.627Z,96588.59
2023-03-06T20:58:57.867Z,96581.59
2023-03-06T21:01:33.801Z,96570.81
2023-03-06T21:04:07.119Z,96567.50
2023-03-06T21:06:37.283Z,96563.41
2023-03-06T21:09:07.460Z,96561.78
2023-03-06T21:11:36.756Z,96559.06
2023-03-06T21:14:03.421Z,96563.34
2023-03-06T21:16:30.507Z,96565.22
2023-03-06T21:19:00.393Z,96557.97
2023-03-06T21:21:30.783Z,96558.06
2023-03-06T21:23:59.007Z,96561.56
2023-03-06T21:26:28.687Z,96564.25
2023-03-06T21:29:03.007Z,96557.22
2023-03-06T21:31:36.859Z,96555.34
2023-03-06T21:34:05.243Z,96554.38
2023-03-06T21:36:32.181Z,96544.81
2023-03-06T21:38:58.891Z,96544.97
2023-03-06T21:41:30.684Z,96548.47
2023-03-06T21:43:59.664Z,96545.13
2023-03-06T21:46:27.837Z,96540.03
2023-03-06T21:48:54.632Z,96545.16
2023-03-06T21:51:23.771Z,96542.53
2023-03-06T21:53:53.500Z,96542.28
2023-03-06T21:56:29.904Z,96541.50
2023-03-06T21:58:59.769Z,96533.00
2023-03-06T22:01:28.750Z,96526.81
2023-03-06T22:03:55.807Z,96523.44
2023-03-06T22:06:25.495Z,96521.75
2023-03-06T22:08:52.939Z,96525.34
2023-03-06T22:11:23.280Z,96525.22
2023-03-06T22:13:53.592Z,96521.97
2023-03-06T22:16:23.854Z,96515.88
2023-03-06T22:18:52.057Z,96520.41
2023-03-06T22:21:21.897Z,96519.47
2023-03-06T22:23:52.238Z,96530.84
2023-03-06T22:26:19.696Z,96527.34
2023-03-06T22:28:46.931Z,96524.75
2023-03-06T22:31:18.212Z,96527.28
2023-03-06T22:33:47.604Z,96520.34
2023-03-06T22:36:15.817Z,96522.75
2023-03-06T22:38:45.174Z,96518.47
2023-03-06T22:41:16.523Z,96523.53
2023-03-06T22:43:43.773Z,96521.69
2023-03-06T22:46:15.357Z,96521.44
2023-03-06T22:48:42.997Z,96522.28
2023-03-06T22:51:15.552Z,96521.41
2023-03-06T22:53:43.154Z,96517.00
2023-03-06T22:56:12.317Z,96520.31
2023-03-06T22:58:41.522Z,96515.16
2023-03-06T23:01:10.822Z,96523.13
2023-03-06T23:03:38.751Z,96512.66
2023-03-06T23:06:14.530Z,96513.28
2023-03-06T23:08:43.156Z,96508.94
2023-03-06T23:11:12.553Z,96514.06
2023-03-06T23:13:39.629Z,96511.41
2023-03-06T23:16:07.605Z,96509.69
2023-03-06T23:18:39.650Z,96510.59
2023-03-06T23:21:09.116Z,96509.63
2023-03-06T23:23:37.012Z,96504.44
2023-03-06T23:26:10.537Z,96512.25
2023-03-06T23:28:40.386Z,96509.66
2023-03-06T23:31:08.255Z,96509.66
2023-03-06T23:33:35.274Z,96511.44
2023-03-06T23:36:08.632Z,96516.59
2023-03-06T23:38:38.382Z,96515.75
2023-03-06T23:41:11.633Z,96528.75
2023-03-06T23:43:38.578Z,96519.97
2023-03-06T23:46:07.095Z,96518.19
2023-03-06T23:48:37.281Z,96518.47
2023-03-06T23:51:11.865Z,96520.03
2023-03-06T23:53:38.532Z,96520.91
2023-03-06T23:56:11.166Z,96512.31
2023-03-06T23:58:42.186Z,96513.00
